createdAt,value
2018-05-23T00:00:01.639Z,99.90
2018-05-23T00:02:29.806Z,99.90
2018-05-23T00:04:57.979Z,99.90
2018-05-23T00:07:25.379Z,99.90
2018-05-23T00:09:52.787Z,99.90
2018-05-23T00:12:20.195Z,99.90
2018-05-23T00:14:47.598Z,99.90
2018-05-23T00:17:14.999Z,99.90
2018-05-23T00:19:42.443Z,99.90
2018-05-23T00:22:09.849Z,99.90
2018-05-23T00:24:38.043Z,99.90
2018-05-23T00:27:05.459Z,99.90
2018-05-23T00:29:32.871Z,99.90
2018-05-23T00:32:00.276Z,99.90
2018-05-23T00:34:27.690Z,99.90
2018-05-23T00:36:55.099Z,99.90
2018-05-23T00:39:22.507Z,99.90
2018-05-23T00:41:49.919Z,99.90
2018-05-23T00:44:17.320Z,99.90
2018-05-23T00:46:45.487Z,99.90
2018-05-23T00:49:13.687Z,99.90
2018-05-23T00:51:41.096Z,99.90
2018-05-23T00:54:09.262Z,99.90
2018-05-23T00:56:36.672Z,99.90
2018-05-23T00:59:04.073Z,99.90
2018-05-23T01:01:31.488Z,99.90
2018-05-23T01:03:58.899Z,99.90
2018-05-23T01:06:26.299Z,99.90
2018-05-23T01:08:53.704Z,99.90
2018-05-23T01:11:21.111Z,99.90
2018-05-23T01:13:48.529Z,99.90
2018-05-23T01:16:15.926Z,99.90
2018-05-23T01:18:44.115Z,99.90
2018-05-23T01:21:11.528Z,99.90
2018-05-23T01:23:39.704Z,99.90
2018-05-23T01:26:07.115Z,99.90
2018-05-23T01:28:35.294Z,99.90
2018-05-23T01:31:02.707Z,99.90
2018-05-23T01:33:30.887Z,99.90
2018-05-23T01:35:59.056Z,99.90
2018-05-23T01:38:26.471Z,99.90
2018-05-23T01:40:54.639Z,99.90
2018-05-23T01:43:22.827Z,99.90
2018-05-23T01:45:50.248Z,99.90
2018-05-23T01:48:18.411Z,99.90
2018-05-23T01:50:45.816Z,99.90
2018-05-23T01:53:13.216Z,99.90
2018-05-23T01:55:40.619Z,99.90
2018-05-23T01:58:08.791Z,99.90
2018-05-23T02:00:36.194Z,99.90
2018-05-23T02:03:03.595Z,99.90
2018-05-23T02:05:31.007Z,99.90
2018-05-23T02:07:59.175Z,99.90
2018-05-23T02:10:26.587Z,99.90
2018-05-23T02:12:53.983Z,99.90
2018-05-23T02:15:21.383Z,99.90
2018-05-23T02:17:49.551Z,99.90
2018-05-23T02:20:16.965Z,99.90
2018-05-23T02:22:44.362Z,99.90
2018-05-23T02:25:11.766Z,99.90
2018-05-23T02:27:39.947Z,99.90
2018-05-23T02:30:07.384Z,99.90
2018-05-23T02:32:34.802Z,99.90
2018-05-23T02:35:02.967Z,99.90
2018-05-23T02:37:31.143Z,99.90
2018-05-23T02:39:58.547Z,99.90
2018-05-23T02:42:25.951Z,99.90
2018-05-23T02:44:53.363Z,99.90
2018-05-23T02:47:20.763Z,99.90
2018-05-23T02:49:48.167Z,99.90
2018-05-23T02:52:15.571Z,99.90
2018-05-23T02:54:43.753Z,99.90
2018-05-23T02:57:11.151Z,99.90
2018-05-23T02:59:38.551Z,99.90
2018-05-23T03:02:05.979Z,99.90
2018-05-23T03:04:33.378Z,99.90
2018-05-23T03:07:01.562Z,99.90
2018-05-23T03:09:28.971Z,99.90
2018-05-23T03:11:56.403Z,99.90
2018-05-23T03:14:23.810Z,99.90
2018-05-23T03:16:51.218Z,99.90
2018-05-23T03:19:19.387Z,99.90
2018-05-23T03:21:46.792Z,99.90
2018-05-23T03:24:14.195Z,99.90
2018-05-23T03:26:41.603Z,99.90
2018-05-23T03:29:09.767Z,99.90
2018-05-23T03:31:37.186Z,99.90
2018-05-23T03:34:04.577Z,99.90
2018-05-23T03:36:32.003Z,99.90
2018-05-23T03:38:59.407Z,99.90
2018-05-23T03:41:28.055Z,99.90
2018-05-23T03:43:55.463Z,99.90
2018-05-23T03:46:22.868Z,99.90
2018-05-23T03:48:51.041Z,99.90
2018-05-23T03:51:18.447Z,99.90
2018-05-23T03:53:45.948Z,99.90
2018-05-23T03:56:13.363Z,99.90
2018-05-23T03:58:40.783Z,99.90
2018-05-23T04:01:20.959Z,99.90
2018-05-23T04:04:00.342Z,99.90
2018-05-23T04:06:40.487Z,99.90
2018-05-23T04:09:08.650Z,99.90
2018-05-23T04:11:36.843Z,99.90
2018-05-23T04:14:04.264Z,99.90
2018-05-23T04:16:31.667Z,99.90
2018-05-23T04:18:59.866Z,99.90
2018-05-23T04:21:27.755Z,99.90
2018-05-23T04:23:55.171Z,99.90
2018-05-23T04:26:22.621Z,99.90
2018-05-23T04:28:50.044Z,99.90
2018-05-23T04:31:17.454Z,99.90
2018-05-23T04:33:45.627Z,99.90
2018-05-23T04:36:13.798Z,99.90
2018-05-23T04:38:41.204Z,99.90
2018-05-23T04:41:08.604Z,99.90
2018-05-23T04:43:36.020Z,99.90
2018-05-23T04:46:03.423Z,99.90
2018-05-23T04:48:30.822Z,99.90
2018-05-23T04:50:58.228Z,99.90
2018-05-23T04:53:26.400Z,99.90
2018-05-23T04:55:53.802Z,99.90
2018-05-23T04:58:21.211Z,99.90
2018-05-23T05:00:48.635Z,99.90
2018-05-23T05:03:16.043Z,99.90
2018-05-23T05:05:44.225Z,99.90
2018-05-23T05:08:11.636Z,99.90
2018-05-23T05:10:39.047Z,99.90
2018-05-23T05:13:06.467Z,99.90
2018-05-23T05:15:33.871Z,99.90
2018-05-23T05:18:02.063Z,99.90
2018-05-23T05:20:29.460Z,99.90
2018-05-23T05:22:56.880Z,99.90
2018-05-23T05:25:24.283Z,99.90
2018-05-23T05:27:51.694Z,99.90
2018-05-23T05:30:19.873Z,99.90
2018-05-23T05:32:47.281Z,99.90
2018-05-23T05:35:14.691Z,99.90
2018-05-23T05:37:42.094Z,99.90
2018-05-23T05:40:09.506Z,99.90
2018-05-23T05:42:37.690Z,99.90
2018-05-23T05:45:05.107Z,99.90
2018-05-23T05:47:32.520Z,99.90
2018-05-23T05:49:59.930Z,99.90
2018-05-23T05:52:27.351Z,99.90
2018-05-23T05:54:54.756Z,99.90
2018-05-23T05:57:22.163Z,99.90
2018-05-23T05:59:49.574Z,99.90
2018-05-23T06:02:16.982Z,99.90
2018-05-23T06:04:44.390Z,99.90
2018-05-23T06:07:11.799Z,99.90
2018-05-23T06:09:39.290Z,99.90
2018-05-23T06:12:06.622Z,99.90
2018-05-23T06:14:34.031Z,99.90
2018-05-23T06:17:01.445Z,99.90
2018-05-23T06:19:28.848Z,99.90
2018-05-23T06:21:56.252Z,99.90
2018-05-23T06:24:23.663Z,99.90
2018-05-23T06:26:51.079Z,99.90
2018-05-23T06:29:18.486Z,99.90
2018-05-23T06:31:45.895Z,99.90
2018-05-23T06:34:14.072Z,99.90
2018-05-23T06:36:41.483Z,99.90
2018-05-23T06:39:08.888Z,99.90
2018-05-23T06:41:36.295Z,99.90
2018-05-23T06:44:03.703Z,99.90
2018-05-23T06:46:31.111Z,99.90
2018-05-23T06:48:58.514Z,99.90
2018-05-23T06:51:25.918Z,99.90
2018-05-23T06:53:53.323Z,99.90
2018-05-23T06:56:20.727Z,99.90
2018-05-23T06:58:48.899Z,99.90
2018-05-23T07:01:16.307Z,99.90
2018-05-23T07:03:43.715Z,99.90
2018-05-23T07:06:11.191Z,99.90
2018-05-23T07:08:38.526Z,99.90
2018-05-23T07:11:05.979Z,99.90
2018-05-23T07:13:33.330Z,99.90
2018-05-23T07:16:01.507Z,99.90
2018-05-23T07:18:28.920Z,99.90
2018-05-23T07:20:57.095Z,99.90
2018-05-23T07:23:25.259Z,99.90
2018-05-23T07:25:52.675Z,99.90
2018-05-23T07:28:20.075Z,99.90
2018-05-23T07:30:47.499Z,99.90
2018-05-23T07:33:14.906Z,99.90
2018-05-23T07:35:43.088Z,99.90
2018-05-23T07:38:10.507Z,99.90
2018-05-23T07:40:38.682Z,99.90
2018-05-23T07:43:06.088Z,99.90
2018-05-23T07:45:33.511Z,99.90
2018-05-23T07:48:00.936Z,99.90
2018-05-23T07:50:28.330Z,99.90
2018-05-23T07:52:55.748Z,99.90
2018-05-23T07:55:23.179Z,99.90
2018-05-23T07:57:50.590Z,99.90
2018-05-23T08:00:18.031Z,99.90
2018-05-23T08:02:45.443Z,99.90
2018-05-23T08:05:13.181Z,99.90
2018-05-23T08:07:40.584Z,99.90
2018-05-23T08:10:07.550Z,99.90
2018-05-23T08:12:35.726Z,99.90
2018-05-23T08:15:02.699Z,99.90
2018-05-23T08:17:30.111Z,99.90
2018-05-23T08:19:57.662Z,99.90
2018-05-23T08:22:25.083Z,99.90
2018-05-23T08:24:52.048Z,99.90
2018-05-23T08:27:19.023Z,99.90
2018-05-23T08:29:46.004Z,99.90
2018-05-23T08:32:13.698Z,99.90
2018-05-23T08:34:40.650Z,99.90
2018-05-23T08:37:07.641Z,99.90
2018-05-23T08:39:34.599Z,99.90
2018-05-23T08:42:02.322Z,99.90
2018-05-23T08:44:29.277Z,99.90
2018-05-23T08:46:57.006Z,99.90
2018-05-23T08:49:23.976Z,99.90
2018-05-23T08:51:50.934Z,99.90
2018-05-23T08:54:17.898Z,99.90
2018-05-23T08:56:44.863Z,99.90
2018-05-23T08:59:11.826Z,99.90
2018-05-23T09:01:38.786Z,99.90
2018-05-23T09:04:06.200Z,99.90
2018-05-23T09:06:33.155Z,99.90
2018-05-23T09:09:00.110Z,99.90
2018-05-23T09:11:28.296Z,99.90
2018-05-23T09:13:55.751Z,99.90
2018-05-23T09:16:23.159Z,99.90
2018-05-23T09:18:50.881Z,99.90
2018-05-23T09:21:17.838Z,99.90
2018-05-23T09:23:45.562Z,99.90
2018-05-23T09:26:12.587Z,99.90
2018-05-23T09:28:39.559Z,99.90
2018-05-23T09:31:07.279Z,99.90
2018-05-23T09:33:34.237Z,99.90
2018-05-23T09:36:01.206Z,99.90
2018-05-23T09:38:28.170Z,99.90
2018-05-23T09:40:55.139Z,99.90
2018-05-23T09:43:22.103Z,99.90
2018-05-23T09:45:49.514Z,99.90
2018-05-23T09:48:16.478Z,99.90
2018-05-23T09:50:43.887Z,99.90
2018-05-23T09:53:10.863Z,99.90
2018-05-23T09:55:37.828Z,99.90
2018-05-23T09:58:05.994Z,99.90
2018-05-23T10:00:33.398Z,99.90
2018-05-23T10:03:00.810Z,99.90
2018-05-23T10:05:28.215Z,99.90
2018-05-23T10:07:55.174Z,99.90
2018-05-23T10:10:22.130Z,99.90
2018-05-23T10:12:49.090Z,99.90
2018-05-23T10:15:16.823Z,99.90
2018-05-23T10:17:43.785Z,99.90
2018-05-23T10:20:11.509Z,99.90
2018-05-23T10:22:38.915Z,99.90
2018-05-23T10:25:05.873Z,99.90
2018-05-23T10:27:32.825Z,99.90
2018-05-23T10:30:00.559Z,99.90
2018-05-23T10:32:27.966Z,99.90
2018-05-23T10:34:54.922Z,99.90
2018-05-23T10:37:21.886Z,99.90
2018-05-23T10:39:48.847Z,99.90
2018-05-23T10:42:15.802Z,99.90
2018-05-23T10:44:42.822Z,99.90
2018-05-23T10:47:10.226Z,99.90
2018-05-23T10:49:37.194Z,99.90
2018-05-23T10:52:04.673Z,99.90
2018-05-23T10:54:32.040Z,99.90
2018-05-23T10:56:59.000Z,99.90
2018-05-23T10:59:25.959Z,99.90
2018-05-23T11:01:52.923Z,99.90
2018-05-23T11:04:20.654Z,99.90
2018-05-23T11:06:48.378Z,99.90
2018-05-23T11:09:15.334Z,99.90
2018-05-23T11:11:43.067Z,99.90
2018-05-23T11:14:10.476Z,99.90
2018-05-23T11:16:37.895Z,99.90
2018-05-23T11:19:05.296Z,99.90
2018-05-23T11:21:32.262Z,99.90
2018-05-23T11:23:59.663Z,99.90
2018-05-23T11:26:26.626Z,99.90
2018-05-23T11:28:54.037Z,99.90
2018-05-23T11:31:21.441Z,99.90
2018-05-23T11:33:48.838Z,99.90
2018-05-23T11:36:17.011Z,99.90
2018-05-23T11:38:44.415Z,99.90
2018-05-23T11:41:11.827Z,99.90
2018-05-23T11:43:39.235Z,99.90
2018-05-23T11:46:06.654Z,99.90
2018-05-23T11:48:34.819Z,99.90
2018-05-23T11:51:02.991Z,99.90
2018-05-23T11:53:30.399Z,99.90
2018-05-23T11:55:57.814Z,99.90
2018-05-23T11:58:25.234Z,99.90
2018-05-23T12:00:52.647Z,99.90
2018-05-23T12:03:20.060Z,99.90
2018-05-23T12:05:47.467Z,99.90
2018-05-23T12:08:14.883Z,99.90
2018-05-23T12:10:42.446Z,99.90
2018-05-23T12:13:09.696Z,99.90
2018-05-23T12:15:37.112Z,99.90
2018-05-23T12:18:04.507Z,99.90
2018-05-23T12:20:31.918Z,99.90
2018-05-23T12:22:59.323Z,99.90
2018-05-23T12:25:26.732Z,99.90
2018-05-23T12:27:54.135Z,99.90
2018-05-23T12:30:21.540Z,99.90
2018-05-23T12:32:49.710Z,99.90
2018-05-23T12:35:17.115Z,99.90
2018-05-23T12:37:44.519Z,99.90
2018-05-23T12:40:11.922Z,99.90
2018-05-23T12:42:39.392Z,99.90
2018-05-23T12:45:06.796Z,99.90
2018-05-23T12:47:34.975Z,99.90
2018-05-23T12:50:02.379Z,99.90
2018-05-23T12:52:29.790Z,99.90
2018-05-23T12:54:57.195Z,99.90
2018-05-23T12:57:24.607Z,99.90
2018-05-23T12:59:52.774Z,99.90
2018-05-23T13:02:20.956Z,99.90
2018-05-23T13:04:48.362Z,99.90
2018-05-23T13:07:15.767Z,99.90
2018-05-23T13:09:43.176Z,99.90
2018-05-23T13:12:10.588Z,99.90
2018-05-23T13:14:38.318Z,99.90
2018-05-23T13:17:05.724Z,99.90
2018-05-23T13:19:33.135Z,99.90
2018-05-23T13:22:00.538Z,99.90
2018-05-23T13:24:27.951Z,99.90
2018-05-23T13:26:55.351Z,99.90
2018-05-23T13:29:23.535Z,99.90
2018-05-23T13:31:51.047Z,99.90
2018-05-23T13:34:18.377Z,99.90
2018-05-23T13:36:45.780Z,99.40
2018-05-23T13:39:13.199Z,99.90
2018-05-23T13:41:40.609Z,98.20
2018-05-23T13:44:08.788Z,98.20
2018-05-23T13:46:36.183Z,98.30
2018-05-23T13:49:03.592Z,99.00
2018-05-23T13:51:30.994Z,98.90
2018-05-23T13:53:59.227Z,97.30
2018-05-23T13:56:26.635Z,97.30
2018-05-23T13:58:54.039Z,96.60
2018-05-23T14:01:22.213Z,97.90
2018-05-23T14:03:49.614Z,97.90
2018-05-23T14:06:17.037Z,99.00
2018-05-23T14:08:44.435Z,98.40
2018-05-23T14:11:11.838Z,97.60
2018-05-23T14:13:39.251Z,96.60
2018-05-23T14:16:06.659Z,96.70
2018-05-23T14:18:34.068Z,95.10
2018-05-23T14:21:02.242Z,97.40
2018-05-23T14:23:30.424Z,97.60
2018-05-23T14:25:57.822Z,97.60
2018-05-23T14:28:25.231Z,97.50
2018-05-23T14:30:52.659Z,97.20
2018-05-23T14:33:20.060Z,95.60
2018-05-23T14:35:48.246Z,97.70
2018-05-23T14:38:15.638Z,97.80
2018-05-23T14:40:44.550Z,96.40
2018-05-23T14:43:11.963Z,96.30
2018-05-23T14:45:39.358Z,95.90
2018-05-23T14:48:06.767Z,97.20
2018-05-23T14:50:34.950Z,97.60
2018-05-23T14:53:02.350Z,97.70
2018-05-23T14:55:30.525Z,96.20
2018-05-23T14:57:58.698Z,98.00
2018-05-23T15:00:26.101Z,97.90
2018-05-23T15:02:55.018Z,97.70
2018-05-23T15:05:22.427Z,97.70
2018-05-23T15:07:49.835Z,95.00
2018-05-23T15:10:17.242Z,94.10
2018-05-23T15:12:44.645Z,93.80
2018-05-23T15:15:11.602Z,95.20
2018-05-23T15:17:39.067Z,94.70
2018-05-23T15:20:06.488Z,95.90
2018-05-23T15:22:34.644Z,93.30
2018-05-23T15:25:02.055Z,93.30
2018-05-23T15:27:29.468Z,94.60
2018-05-23T15:29:56.879Z,95.90
2018-05-23T15:32:23.842Z,93.80
2018-05-23T15:34:51.251Z,94.30
2018-05-23T15:37:18.659Z,95.30
2018-05-23T15:39:46.066Z,93.80
2018-05-23T15:42:13.470Z,93.90
2018-05-23T15:44:40.868Z,92.90
2018-05-23T15:47:08.279Z,92.00
2018-05-23T15:49:35.695Z,91.10
2018-05-23T15:52:03.099Z,92.50
2018-05-23T15:54:31.270Z,91.10
2018-05-23T15:56:59.468Z,90.40
2018-05-23T15:59:26.865Z,90.40
2018-05-23T16:01:53.818Z,86.90
2018-05-23T16:04:21.235Z,91.00
2018-05-23T16:06:49.438Z,93.10
2018-05-23T16:09:16.843Z,92.70
2018-05-23T16:11:45.015Z,94.50
2018-05-23T16:14:12.420Z,94.60
2018-05-23T16:16:39.929Z,94.60
2018-05-23T16:19:07.343Z,94.10
2018-05-23T16:21:34.817Z,93.40
2018-05-23T16:24:02.218Z,94.30
2018-05-23T16:26:30.397Z,93.60
2018-05-23T16:28:57.799Z,93.60
2018-05-23T16:31:25.202Z,94.10
2018-05-23T16:33:52.615Z,94.00
2018-05-23T16:36:19.578Z,96.00
2018-05-23T16:38:47.002Z,96.40
2018-05-23T16:41:14.407Z,96.50
2018-05-23T16:43:42.584Z,96.10
2018-05-23T16:46:09.993Z,96.10
2018-05-23T16:48:37.400Z,96.50
2018-05-23T16:51:04.814Z,95.90
2018-05-23T16:53:32.215Z,94.60
2018-05-23T16:55:59.623Z,95.60
2018-05-23T16:58:26.587Z,95.10
2018-05-23T17:00:54.007Z,96.40
2018-05-23T17:03:21.427Z,95.00
2018-05-23T17:05:48.839Z,94.60
2018-05-23T17:08:16.242Z,94.40
2018-05-23T17:10:43.652Z,94.00
2018-05-23T17:13:10.615Z,94.60
2018-05-23T17:15:37.579Z,95.80
2018-05-23T17:18:05.758Z,95.40
2018-05-23T17:20:33.167Z,95.40
2018-05-23T17:23:01.355Z,97.20
2018-05-23T17:25:28.751Z,97.30
2018-05-23T17:27:56.167Z,96.70
2018-05-23T17:30:23.122Z,96.40
2018-05-23T17:32:50.090Z,96.50
2018-05-23T17:35:17.053Z,97.70
2018-05-23T17:37:44.019Z,97.60
2018-05-23T17:40:12.209Z,97.20
2018-05-23T17:42:40.365Z,95.90
2018-05-23T17:45:07.318Z,95.80
2018-05-23T17:47:34.733Z,97.00
2018-05-23T17:50:02.901Z,99.40
2018-05-23T17:52:29.861Z,99.40
2018-05-23T17:54:57.267Z,98.70
2018-05-23T17:57:24.243Z,99.10
2018-05-23T17:59:51.221Z,99.90
2018-05-23T18:02:18.946Z,99.20
2018-05-23T18:04:46.360Z,99.10
2018-05-23T18:07:13.315Z,99.00
2018-05-23T18:09:40.274Z,99.10
2018-05-23T18:12:07.243Z,99.10
2018-05-23T18:14:34.194Z,99.00
2018-05-23T18:17:01.598Z,99.10
2018-05-23T18:19:28.594Z,99.60
2018-05-23T18:21:56.761Z,99.90
2018-05-23T18:24:24.485Z,99.90
2018-05-23T18:26:51.446Z,99.90
2018-05-23T18:29:19.671Z,99.90
2018-05-23T18:31:47.015Z,99.90
2018-05-23T18:34:14.511Z,99.90
2018-05-23T18:36:41.925Z,99.90
2018-05-23T18:39:10.090Z,99.90
2018-05-23T18:41:37.045Z,99.90
2018-05-23T18:44:04.483Z,99.90
2018-05-23T18:46:31.886Z,99.90
2018-05-23T18:49:00.069Z,99.90
2018-05-23T18:51:27.910Z,99.90
2018-05-23T18:53:55.633Z,99.90
2018-05-23T18:56:22.599Z,99.90
2018-05-23T18:58:49.613Z,99.90
2018-05-23T19:01:17.330Z,99.90
2018-05-23T19:03:44.734Z,99.90
2018-05-23T19:06:12.134Z,99.90
2018-05-23T19:08:39.863Z,99.90
2018-05-23T19:11:06.826Z,99.90
2018-05-23T19:13:34.567Z,99.90
2018-05-23T19:16:02.744Z,99.90
2018-05-23T19:18:30.138Z,99.90
2018-05-23T19:20:57.555Z,99.90
2018-05-23T19:23:24.963Z,99.90
2018-05-23T19:25:51.918Z,99.90
2018-05-23T19:28:19.339Z,99.90
2018-05-23T19:30:46.751Z,99.90
2018-05-23T19:33:14.918Z,99.90
2018-05-23T19:35:43.121Z,99.90
2018-05-23T19:38:10.523Z,99.90
2018-05-23T19:40:38.703Z,99.90
2018-05-23T19:43:06.115Z,99.90
2018-05-23T19:45:34.289Z,99.90
2018-05-23T19:48:02.450Z,99.90
2018-05-23T19:50:29.867Z,99.90
2018-05-23T19:52:57.300Z,99.90
2018-05-23T19:55:24.679Z,99.90
2018-05-23T19:57:52.090Z,99.90
2018-05-23T20:00:20.267Z,99.90
2018-05-23T20:02:48.430Z,99.90
2018-05-23T20:05:15.904Z,99.90
2018-05-23T20:07:43.303Z,99.90
2018-05-23T20:10:11.480Z,99.90
2018-05-23T20:12:38.880Z,99.90
2018-05-23T20:15:06.283Z,99.90
2018-05-23T20:17:33.691Z,99.90
2018-05-23T20:20:01.100Z,99.90
2018-05-23T20:22:28.500Z,99.90
2018-05-23T20:24:55.910Z,99.90
2018-05-23T20:27:24.074Z,99.90
2018-05-23T20:29:52.254Z,99.90
2018-05-23T20:32:19.670Z,99.90
2018-05-23T20:34:47.843Z,99.90
2018-05-23T20:37:15.251Z,99.90
2018-05-23T20:39:42.649Z,99.90
2018-05-23T20:42:10.043Z,99.90
2018-05-23T20:44:38.228Z,99.90
2018-05-23T20:47:05.624Z,99.90
2018-05-23T20:49:33.793Z,99.90
2018-05-23T20:52:01.202Z,99.90
2018-05-23T20:54:28.603Z,99.90
2018-05-23T20:56:56.002Z,99.90
2018-05-23T20:59:23.411Z,99.90
2018-05-23T21:01:50.823Z,99.90
2018-05-23T21:04:18.238Z,99.90
2018-05-23T21:06:45.651Z,99.90
2018-05-23T21:09:13.051Z,99.90
2018-05-23T21:11:40.558Z,99.90
2018-05-23T21:14:07.867Z,99.90
2018-05-23T21:16:35.271Z,99.90
2018-05-23T21:19:02.687Z,99.90
2018-05-23T21:21:30.091Z,99.90
2018-05-23T21:23:57.492Z,99.90
2018-05-23T21:26:24.964Z,99.90
2018-05-23T21:28:52.364Z,99.90
2018-05-23T21:31:20.531Z,99.90
2018-05-23T21:33:47.930Z,99.90
2018-05-23T21:36:15.339Z,99.90
2018-05-23T21:38:42.742Z,99.90
2018-05-23T21:41:10.923Z,99.90
2018-05-23T21:43:38.323Z,99.90
2018-05-23T21:46:05.729Z,99.90
2018-05-23T21:48:33.126Z,99.90
2018-05-23T21:51:01.308Z,99.90
2018-05-23T21:53:28.720Z,99.90
2018-05-23T21:55:56.884Z,99.90
2018-05-23T21:58:25.056Z,99.90
2018-05-23T22:00:52.459Z,99.90
2018-05-23T22:03:19.880Z,99.90
2018-05-23T22:05:47.279Z,99.90
2018-05-23T22:08:14.682Z,99.90
2018-05-23T22:10:42.095Z,99.90
2018-05-23T22:13:09.504Z,99.90
2018-05-23T22:15:36.916Z,99.90
2018-05-23T22:18:05.086Z,99.90
2018-05-23T22:20:33.255Z,99.90
2018-05-23T22:23:00.674Z,99.90
2018-05-23T22:25:28.073Z,99.90
2018-05-23T22:27:55.476Z,99.90
2018-05-23T22:30:22.900Z,99.90
2018-05-23T22:32:50.286Z,99.90
2018-05-23T22:35:17.687Z,99.90
2018-05-23T22:37:45.871Z,99.90
2018-05-23T22:40:13.278Z,99.90
2018-05-23T22:42:41.447Z,99.90
2018-05-23T22:45:09.623Z,99.90
2018-05-23T22:47:37.026Z,99.90
2018-05-23T22:50:04.427Z,99.90
2018-05-23T22:52:31.834Z,99.90
2018-05-23T22:55:00.011Z,99.90
2018-05-23T22:57:27.427Z,99.90
2018-05-23T22:59:55.603Z,99.90
2018-05-23T23:02:23.003Z,99.90
2018-05-23T23:04:50.411Z,99.90
2018-05-23T23:07:17.806Z,99.90
2018-05-23T23:09:45.976Z,99.90
2018-05-23T23:12:14.151Z,99.90
2018-05-23T23:14:41.556Z,99.90
2018-05-23T23:17:08.956Z,99.90
2018-05-23T23:19:36.371Z,99.90
2018-05-23T23:22:03.767Z,99.90
2018-05-23T23:24:31.171Z,99.90
2018-05-23T23:26:58.584Z,99.90
2018-05-23T23:29:26.746Z,99.90
2018-05-23T23:31:54.208Z,99.90
2018-05-23T23:34:21.625Z,99.90
2018-05-23T23:36:49.019Z,99.90
2018-05-23T23:39:16.439Z,99.90
2018-05-23T23:41:43.875Z,99.90
2018-05-23T23:44:11.279Z,99.90
2018-05-23T23:46:39.453Z,99.90
2018-05-23T23:49:06.862Z,99.90
2018-05-23T23:51:34.271Z,99.90
2018-05-23T23:54:01.680Z,99.90
2018-05-23T23:56:29.080Z,99.90
2018-05-23T23:58:56.487Z,99.90
